Time;durP1;ratioP1;P1;durP2;ratioP2;P2;SDS_P1;SDS_P2;PMS_P1;PMS_P2;Temp;Humidity;BMP_temperature;BMP_pressure;BME280_temperature;BME280_humidity;BME280_pressure;Samples;Min_cycle;Max_cycle;Signal;HPM_P1;HPM_P2
2023/09/26 00:01:52;;;;;;;9.80;7.37;;;;;;;;;;5033739;28;20184;-77
2023/09/26 00:04:18;;;;;;;8.73;6.80;;;;;;;;;;5017948;28;20188;-77
2023/09/26 00:06:44;;;;;;;10.70;7.30;;;;;;;;;;5021405;28;20245;-77
2023/09/26 00:09:10;;;;;;;10.80;7.30;;;;;;;;;;5021635;28;20181;-79
2023/09/26 00:11:38;;;;;;;8.47;6.67;;;;;;;;;;5028536;28;20176;-79
2023/09/26 00:14:05;;;;;;;8.37;7.20;;;;;;;;;;5002091;28;20208;-79
2023/09/26 00:16:31;;;;;;;10.10;7.47;;;;;;;;;;5001887;28;20213;-79
2023/09/26 00:18:56;;;;;;;9.23;7.80;;;;;;;;;;5018136;28;20216;-76
2023/09/26 00:21:22;;;;;;;10.57;7.60;;;;;;;;;;5001535;28;20227;-76
2023/09/26 00:23:49;;;;;;;9.50;7.00;;;;;;;;;;5001712;28;20195;-76
2023/09/26 00:26:15;;;;;;;9.10;7.73;;;;;;;;;;5001444;28;20216;-78
2023/09/26 00:28:41;;;;;;;10.27;7.47;;;;;;;;;;5018679;28;20290;-78
2023/09/26 00:31:07;;;;;;;9.50;7.17;;;;;;;;;;5001102;28;20204;-78
2023/09/26 00:33:33;;;;;;;11.03;7.43;;;;;;;;;;5001544;28;20188;-78
2023/09/26 00:36:06;;;;;;;10.43;7.33;;;;;;;;;;5035477;28;20185;-78
2023/09/26 00:38:32;;;;;;;9.80;7.60;;;;;;;;;;5017708;28;20322;-77
2023/09/26 00:40:58;;;;;;;9.87;7.10;;;;;;;;;;5017553;28;20252;-79
2023/09/26 00:43:24;;;;;;;8.07;7.17;;;;;;;;;;5005555;28;20216;-80
2023/09/26 00:45:53;;;;;;;9.67;7.30;;;;;;;;;;5017337;28;20180;-79
2023/09/26 00:48:19;;;;;;;10.93;8.10;;;;;;;;;;5017195;28;20177;-79
2023/09/26 00:50:46;;;;;;;12.77;7.87;;;;;;;;;;4987278;28;20193;-79
2023/09/26 00:53:12;;;;;;;9.47;7.83;;;;;;;;;;5015038;28;20187;-79
2023/09/26 00:55:38;;;;;;;12.63;8.37;;;;;;;;;;5035012;28;20177;-79
2023/09/26 00:58:04;;;;;;;10.07;7.83;;;;;;;;;;5035060;28;20251;-78
2023/09/26 01:00:31;;;;;;;12.07;8.07;;;;;;;;;;5028771;28;20192;-78
2023/09/26 01:02:57;;;;;;;9.77;8.30;;;;;;;;;;5022060;28;20227;-77
2023/09/26 01:05:24;;;;;;;10.50;7.93;;;;;;;;;;5001027;28;20196;-77
2023/09/26 01:07:50;;;;;;;9.07;7.70;;;;;;;;;;5000833;28;20300;-77
2023/09/26 01:10:17;;;;;;;11.83;7.67;;;;;;;;;;5001049;28;20192;-77
2023/09/26 01:12:43;;;;;;;9.93;7.10;;;;;;;;;;5011669;28;20242;-77
2023/09/26 01:15:10;;;;;;;10.77;7.73;;;;;;;;;;5039951;28;20212;-78
2023/09/26 01:17:36;;;;;;;11.53;7.77;;;;;;;;;;5017331;28;20188;-79
2023/09/26 01:20:12;;;;;;;10.83;6.67;;;;;;;;;;5000687;28;20192;-79
2023/09/26 01:22:41;;;;;;;9.63;7.07;;;;;;;;;;5018182;28;20223;-77
2023/09/26 01:25:07;;;;;;;8.47;6.73;;;;;;;;;;5012746;28;20215;-77
2023/09/26 01:27:34;;;;;;;10.80;6.77;;;;;;;;;;4997343;28;20205;-77
2023/09/26 01:29:59;;;;;;;8.73;6.63;;;;;;;;;;4997759;28;20185;-77
2023/09/26 01:32:26;;;;;;;9.33;6.47;;;;;;;;;;5028166;28;20210;-76
2023/09/26 01:34:52;;;;;;;8.83;6.73;;;;;;;;;;5049195;28;20191;-76
2023/09/26 01:37:20;;;;;;;10.13;6.67;;;;;;;;;;5034006;28;20191;-76
2023/09/26 01:39:46;;;;;;;8.50;6.40;;;;;;;;;;5016134;28;20188;-75
2023/09/26 01:42:12;;;;;;;8.50;6.27;;;;;;;;;;4991172;28;20185;-76
2023/09/26 01:44:38;;;;;;;10.80;7.00;;;;;;;;;;5009578;28;20265;-76
2023/09/26 01:47:04;;;;;;;8.50;6.53;;;;;;;;;;5000176;28;20327;-79
2023/09/26 01:49:30;;;;;;;9.33;6.47;;;;;;;;;;5051134;28;20215;-77
2023/09/26 01:51:57;;;;;;;8.10;6.37;;;;;;;;;;5033548;28;20184;-77
2023/09/26 01:54:23;;;;;;;8.60;6.63;;;;;;;;;;5015601;28;20188;-77
2023/09/26 01:56:49;;;;;;;11.17;7.23;;;;;;;;;;5033417;28;20239;-76
2023/09/26 01:59:15;;;;;;;8.90;6.40;;;;;;;;;;5033892;28;20188;-76
2023/09/26 02:01:41;;;;;;;10.10;6.60;;;;;;;;;;5015527;28;20243;-77
2023/09/26 02:04:07;;;;;;;7.83;6.37;;;;;;;;;;4999269;28;20204;-78
2023/09/26 02:06:33;;;;;;;9.80;6.30;;;;;;;;;;5013251;28;20303;-78
2023/09/26 02:08:59;;;;;;;7.83;5.83;;;;;;;;;;5012097;28;20184;-79
2023/09/26 02:11:25;;;;;;;7.73;6.00;;;;;;;;;;5060192;22;20240;-77
2023/09/26 02:13:51;;;;;;;8.43;5.53;;;;;;;;;;4997032;28;20244;-77
2023/09/26 02:16:16;;;;;;;7.93;6.00;;;;;;;;;;5015826;28;20203;-78
2023/09/26 02:18:43;;;;;;;7.43;6.00;;;;;;;;;;5030777;28;20188;-79
2023/09/26 02:21:15;;;;;;;8.67;6.13;;;;;;;;;;5026090;28;20180;-76
2023/09/26 02:23:41;;;;;;;7.50;6.37;;;;;;;;;;5018058;28;20193;-78
2023/09/26 02:26:07;;;;;;;8.93;6.27;;;;;;;;;;4999957;28;20197;-79
2023/09/26 02:28:33;;;;;;;8.43;6.23;;;;;;;;;;5000413;28;20195;-79
2023/09/26 02:30:59;;;;;;;8.33;6.40;;;;;;;;;;5015393;28;20192;-79
2023/09/26 02:33:25;;;;;;;9.47;6.77;;;;;;;;;;5016845;28;20176;-79
2023/09/26 02:35:51;;;;;;;9.57;7.10;;;;;;;;;;5000198;28;20209;-79
2023/09/26 02:38:17;;;;;;;8.27;6.83;;;;;;;;;;5016085;28;20227;-77
2023/09/26 02:40:43;;;;;;;7.67;6.33;;;;;;;;;;4999809;28;20184;-77
2023/09/26 02:43:09;;;;;;;9.37;6.60;;;;;;;;;;5016088;28;20281;-77
2023/09/26 02:45:35;;;;;;;8.37;6.53;;;;;;;;;;4998803;28;20197;-77
2023/09/26 02:48:02;;;;;;;9.37;6.20;;;;;;;;;;5018720;28;20207;-77
2023/09/26 02:50:28;;;;;;;9.23;6.80;;;;;;;;;;5006609;28;20189;-77
2023/09/26 02:52:54;;;;;;;8.13;6.90;;;;;;;;;;5017371;28;20192;-75
2023/09/26 02:55:20;;;;;;;8.70;6.70;;;;;;;;;;5019442;28;20177;-77
2023/09/26 02:57:46;;;;;;;10.63;7.30;;;;;;;;;;5019546;28;20199;-77
2023/09/26 03:00:19;;;;;;;10.70;7.20;;;;;;;;;;5035967;28;20280;-77
2023/09/26 03:02:45;;;;;;;10.77;8.00;;;;;;;;;;5004171;28;20185;-77
2023/09/26 03:05:12;;;;;;;9.73;8.00;;;;;;;;;;5036896;28;20177;-77
2023/09/26 03:07:41;;;;;;;11.40;7.10;;;;;;;;;;5020918;28;20209;-77
2023/09/26 03:10:07;;;;;;;11.27;7.70;;;;;;;;;;5022528;28;20177;-77
2023/09/26 03:12:33;;;;;;;9.90;7.73;;;;;;;;;;5019337;28;20223;-77
2023/09/26 03:14:59;;;;;;;11.57;8.33;;;;;;;;;;5016641;28;20225;-76
2023/09/26 03:17:25;;;;;;;12.20;8.30;;;;;;;;;;5019271;28;20185;-76
2023/09/26 03:19:51;;;;;;;9.60;8.00;;;;;;;;;;5019330;28;20247;-77
2023/09/26 03:22:17;;;;;;;11.97;7.67;;;;;;;;;;5002582;28;20199;-76
2023/09/26 03:24:43;;;;;;;9.27;7.23;;;;;;;;;;5003146;28;20208;-76
2023/09/26 03:27:09;;;;;;;7.70;7.00;;;;;;;;;;5018930;28;20216;-76
2023/09/26 03:29:35;;;;;;;10.20;7.60;;;;;;;;;;5002753;28;20180;-77
2023/09/26 03:32:01;;;;;;;8.73;7.87;;;;;;;;;;5019635;28;20188;-77
2023/09/26 03:34:27;;;;;;;12.57;8.20;;;;;;;;;;5033897;28;20263;-77
2023/09/26 03:36:53;;;;;;;8.37;7.57;;;;;;;;;;5029682;28;20264;-77
2023/09/26 03:39:19;;;;;;;9.37;8.10;;;;;;;;;;5003134;28;20192;-76
2023/09/26 03:41:45;;;;;;;8.87;7.53;;;;;;;;;;5033401;28;20197;-77
2023/09/26 03:44:11;;;;;;;10.07;8.37;;;;;;;;;;5017773;28;20199;-76
2023/09/26 03:46:37;;;;;;;9.73;8.40;;;;;;;;;;5008900;28;20208;-75
2023/09/26 03:49:03;;;;;;;12.93;9.00;;;;;;;;;;4999743;28;20186;-75
2023/09/26 03:51:30;;;;;;;8.93;8.03;;;;;;;;;;5031117;28;20243;-75
2023/09/26 03:53:56;;;;;;;12.50;8.60;;;;;;;;;;5019349;28;20177;-75
2023/09/26 03:56:22;;;;;;;10.10;8.77;;;;;;;;;;5016581;28;20279;-76
2023/09/26 03:58:48;;;;;;;9.53;8.57;;;;;;;;;;5018019;28;20211;-75
2023/09/26 04:01:15;;;;;;;10.50;8.80;;;;;;;;;;5018207;28;20273;-76
2023/09/26 04:03:42;;;;;;;13.03;9.17;;;;;;;;;;5017764;28;20271;-76
2023/09/26 04:06:09;;;;;;;9.90;8.23;;;;;;;;;;5044302;28;20266;-75
2023/09/26 04:08:35;;;;;;;10.03;8.70;;;;;;;;;;5029804;28;20180;-76
2023/09/26 04:11:01;;;;;;;8.83;7.93;;;;;;;;;;5055259;28;20212;-76
2023/09/26 04:13:27;;;;;;;9.13;8.07;;;;;;;;;;5031077;28;20322;-75
2023/09/26 04:15:54;;;;;;;9.93;8.33;;;;;;;;;;5039306;28;20180;-75
2023/09/26 04:18:20;;;;;;;9.13;8.10;;;;;;;;;;5027761;28;20204;-77
2023/09/26 04:20:46;;;;;;;9.70;8.13;;;;;;;;;;5002690;28;20196;-77
2023/09/26 04:23:12;;;;;;;9.03;8.13;;;;;;;;;;5018575;28;20188;-77
2023/09/26 04:25:38;;;;;;;10.73;8.40;;;;;;;;;;5002016;28;20189;-77
2023/09/26 04:28:05;;;;;;;11.00;7.93;;;;;;;;;;5001903;28;20224;-77
2023/09/26 04:30:31;;;;;;;9.90;8.50;;;;;;;;;;5035265;28;20181;-77
2023/09/26 04:32:57;;;;;;;10.43;8.90;;;;;;;;;;5041278;28;20176;-77
2023/09/26 04:35:23;;;;;;;10.67;8.93;;;;;;;;;;5011211;28;20275;-77
2023/09/26 04:37:49;;;;;;;9.67;7.90;;;;;;;;;;5018029;28;20192;-77
2023/09/26 04:40:16;;;;;;;9.50;7.93;;;;;;;;;;5001156;28;20215;-76
2023/09/26 04:42:44;;;;;;;10.63;8.50;;;;;;;;;;4985390;28;20188;-76
2023/09/26 04:45:10;;;;;;;9.80;8.37;;;;;;;;;;5028880;28;20184;-76
2023/09/26 04:47:36;;;;;;;9.73;8.77;;;;;;;;;;5004228;28;20216;-76
2023/09/26 04:50:03;;;;;;;10.97;8.70;;;;;;;;;;5013655;28;20271;-76
2023/09/26 04:52:29;;;;;;;11.53;8.90;;;;;;;;;;5017806;28;20169;-76
2023/09/26 04:54:55;;;;;;;10.03;9.03;;;;;;;;;;5001311;28;20234;-76
2023/09/26 04:57:21;;;;;;;10.73;8.90;;;;;;;;;;5016914;28;20193;-76
2023/09/26 04:59:47;;;;;;;10.17;9.10;;;;;;;;;;5017658;28;20219;-76
2023/09/26 05:02:13;;;;;;;12.40;9.97;;;;;;;;;;5017708;28;20219;-77
2023/09/26 05:04:41;;;;;;;10.57;9.47;;;;;;;;;;5035051;28;20207;-77
2023/09/26 05:07:09;;;;;;;11.23;10.03;;;;;;;;;;5007555;28;20238;-77
2023/09/26 05:09:35;;;;;;;12.50;10.03;;;;;;;;;;5017037;28;20185;-79
2023/09/26 05:12:01;;;;;;;11.03;9.93;;;;;;;;;;5034654;28;20267;-80
2023/09/26 05:14:27;;;;;;;10.70;9.43;;;;;;;;;;5015984;28;20283;-77
2023/09/26 05:16:53;;;;;;;12.30;10.33;;;;;;;;;;5016478;28;20275;-77
2023/09/26 05:19:19;;;;;;;11.10;10.00;;;;;;;;;;5003989;28;20185;-77
2023/09/26 05:21:45;;;;;;;13.07;10.37;;;;;;;;;;5008247;28;20279;-77
2023/09/26 05:24:11;;;;;;;13.27;10.83;;;;;;;;;;5001716;28;20194;-76
2023/09/26 05:26:38;;;;;;;11.03;9.90;;;;;;;;;;5034149;28;20215;-76
2023/09/26 05:29:04;;;;;;;12.23;10.60;;;;;;;;;;5016956;28;20185;-76
2023/09/26 05:31:31;;;;;;;13.23;10.93;;;;;;;;;;5036554;28;20188;-76
2023/09/26 05:33:58;;;;;;;12.93;11.60;;;;;;;;;;5034632;28;20201;-76
2023/09/26 05:36:24;;;;;;;12.40;11.13;;;;;;;;;;5017279;28;20183;-76
2023/09/26 05:38:50;;;;;;;14.73;11.83;;;;;;;;;;5001605;28;20180;-76
2023/09/26 05:41:16;;;;;;;11.83;10.60;;;;;;;;;;5014510;28;20178;-79
2023/09/26 05:43:42;;;;;;;11.67;10.47;;;;;;;;;;5017334;28;20181;-80
2023/09/26 05:46:08;;;;;;;14.40;10.87;;;;;;;;;;5013473;28;20219;-77
2023/09/26 05:48:34;;;;;;;12.93;11.53;;;;;;;;;;4998753;28;20272;-77
2023/09/26 05:51:02;;;;;;;15.50;12.23;;;;;;;;;;4998939;28;20177;-77
2023/09/26 05:53:28;;;;;;;14.03;12.23;;;;;;;;;;5028304;28;20176;-77
2023/09/26 05:55:54;;;;;;;14.10;11.83;;;;;;;;;;5015674;28;20271;-77
2023/09/26 05:58:20;;;;;;;12.50;11.20;;;;;;;;;;4997265;28;20251;-78
2023/09/26 06:00:46;;;;;;;14.73;11.53;;;;;;;;;;4997343;28;20192;-78
2023/09/26 06:03:14;;;;;;;16.17;11.20;;;;;;;;;;5009050;28;20219;-79
2023/09/26 06:05:40;;;;;;;16.20;11.90;;;;;;;;;;4993267;28;20311;-79
2023/09/26 06:08:06;;;;;;;14.70;12.17;;;;;;;;;;5015830;28;20206;-79
2023/09/26 06:10:32;;;;;;;13.30;11.90;;;;;;;;;;5016193;28;20199;-79
2023/09/26 06:12:58;;;;;;;16.00;14.43;;;;;;;;;;5014764;28;20176;-81
2023/09/26 06:15:24;;;;;;;15.00;13.40;;;;;;;;;;4998739;28;20280;-77
2023/09/26 06:17:57;;;;;;;16.00;14.40;;;;;;;;;;5016992;28;20215;-77
2023/09/26 06:20:23;;;;;;;15.97;13.20;;;;;;;;;;5030176;28;20177;-77
2023/09/26 06:22:49;;;;;;;17.20;14.17;;;;;;;;;;5000462;28;20600;-77
2023/09/26 06:25:15;;;;;;;14.60;13.10;;;;;;;;;;5034541;28;20203;-77
2023/09/26 06:27:41;;;;;;;14.27;12.17;;;;;;;;;;5001155;28;20217;-77
2023/09/26 06:30:10;;;;;;;14.07;12.77;;;;;;;;;;5020751;28;20217;-76
2023/09/26 06:32:37;;;;;;;13.83;12.30;;;;;;;;;;5017939;28;20314;-81
2023/09/26 06:35:03;;;;;;;14.70;12.93;;;;;;;;;;5004234;28;20181;-82
2023/09/26 06:37:29;;;;;;;15.93;12.20;;;;;;;;;;5037997;28;20216;-83
2023/09/26 06:39:58;;;;;;;14.60;12.40;;;;;;;;;;5004023;28;20215;-82
2023/09/26 06:42:24;;;;;;;14.97;11.73;;;;;;;;;;5019955;28;20184;-81
2023/09/26 06:44:50;;;;;;;13.23;11.93;;;;;;;;;;5020245;28;20216;-82
2023/09/26 06:47:17;;;;;;;12.47;11.17;;;;;;;;;;5016216;28;20232;-82
2023/09/26 06:49:43;;;;;;;12.97;11.20;;;;;;;;;;4984382;28;20182;-76
2023/09/26 06:52:10;;;;;;;16.00;11.23;;;;;;;;;;5018851;28;20227;-76
2023/09/26 06:54:36;;;;;;;14.87;11.67;;;;;;;;;;5035456;28;20191;-79
2023/09/26 06:57:02;;;;;;;11.80;10.70;;;;;;;;;;5036245;28;20219;-80
2023/09/26 06:59:28;;;;;;;12.43;11.23;;;;;;;;;;5017602;28;20196;-80
2023/09/26 07:01:54;;;;;;;15.60;11.23;;;;;;;;;;5006741;28;20251;-80
2023/09/26 07:04:20;;;;;;;13.23;11.57;;;;;;;;;;5028560;28;20193;-80
2023/09/26 07:06:46;;;;;;;16.50;12.00;;;;;;;;;;5019215;28;20208;-80
2023/09/26 07:09:12;;;;;;;13.93;11.63;;;;;;;;;;5002146;28;20184;-80
2023/09/26 07:11:41;;;;;;;14.07;10.87;;;;;;;;;;5033867;28;20192;-80
2023/09/26 07:14:07;;;;;;;14.27;11.53;;;;;;;;;;4999511;28;20239;-79
2023/09/26 07:16:34;;;;;;;13.07;11.67;;;;;;;;;;5004693;28;20188;-79
2023/09/26 07:19:00;;;;;;;12.83;11.37;;;;;;;;;;5019630;28;20188;-79
2023/09/26 07:21:26;;;;;;;15.23;12.80;;;;;;;;;;5018138;28;20181;-77
2023/09/26 07:23:54;;;;;;;17.47;12.40;;;;;;;;;;5018876;28;20209;-77
2023/09/26 07:26:20;;;;;;;13.63;12.33;;;;;;;;;;5017808;28;20196;-77
2023/09/26 07:28:47;;;;;;;13.37;12.00;;;;;;;;;;5031309;28;20244;-77
2023/09/26 07:31:14;;;;;;;13.27;11.30;;;;;;;;;;5019629;28;20215;-77
2023/09/26 07:33:41;;;;;;;13.33;11.57;;;;;;;;;;5037883;28;20226;-77
2023/09/26 07:36:07;;;;;;;12.70;11.40;;;;;;;;;;5019464;28;20215;-77
2023/09/26 07:38:34;;;;;;;12.87;11.40;;;;;;;;;;5015595;28;20189;-81
2023/09/26 07:41:00;;;;;;;13.97;11.90;;;;;;;;;;5018060;28;20189;-82
2023/09/26 07:43:29;;;;;;;12.90;11.60;;;;;;;;;;5037859;28;20259;-82
2023/09/26 07:46:03;;;;;;;12.57;11.27;;;;;;;;;;5008647;28;20195;-82
2023/09/26 07:48:29;;;;;;;14.83;12.10;;;;;;;;;;5056318;28;20172;-81
2023/09/26 07:50:56;;;;;;;13.80;10.53;;;;;;;;;;5020289;28;20180;-82
2023/09/26 07:53:22;;;;;;;12.83;11.53;;;;;;;;;;5002283;28;20183;-82
2023/09/26 07:55:48;;;;;;;16.67;11.53;;;;;;;;;;5018991;28;20184;-77
2023/09/26 07:58:15;;;;;;;12.30;11.17;;;;;;;;;;5034443;28;20192;-77
2023/09/26 08:00:41;;;;;;;12.37;11.07;;;;;;;;;;5018307;28;20215;-77
2023/09/26 08:03:07;;;;;;;12.83;11.63;;;;;;;;;;4998042;28;20189;-78
2023/09/26 08:05:33;;;;;;;13.00;11.73;;;;;;;;;;5050523;28;20192;-78
2023/09/26 08:08:04;;;;;;;13.77;11.33;;;;;;;;;;5018256;28;20205;-78
2023/09/26 08:10:29;;;;;;;13.43;11.33;;;;;;;;;;5023015;28;20226;-77
2023/09/26 08:12:55;;;;;;;13.60;11.77;;;;;;;;;;5015348;28;20181;-80
2023/09/26 08:15:22;;;;;;;15.10;11.63;;;;;;;;;;5022501;28;20219;-82
2023/09/26 08:17:47;;;;;;;13.20;11.77;;;;;;;;;;5055576;28;20187;-82
2023/09/26 08:20:14;;;;;;;13.67;12.23;;;;;;;;;;5021361;28;20183;-81
2023/09/26 08:22:40;;;;;;;13.13;11.80;;;;;;;;;;5037403;28;20188;-81
2023/09/26 08:25:07;;;;;;;12.77;11.40;;;;;;;;;;5021746;28;20184;-81
2023/09/26 08:27:33;;;;;;;12.73;11.50;;;;;;;;;;5021770;28;20211;-77
2023/09/26 08:29:59;;;;;;;12.43;11.00;;;;;;;;;;5005793;28;20339;-77
2023/09/26 08:32:26;;;;;;;14.07;12.37;;;;;;;;;;4998535;28;20185;-81
2023/09/26 08:34:52;;;;;;;13.37;12.00;;;;;;;;;;5015689;28;20258;-81
2023/09/26 08:37:18;;;;;;;13.50;12.10;;;;;;;;;;5002436;28;20265;-80
2023/09/26 08:39:44;;;;;;;14.60;11.80;;;;;;;;;;5017803;28;20181;-80
2023/09/26 08:42:15;;;;;;;14.53;11.87;;;;;;;;;;5000674;28;20185;-80
2023/09/26 08:44:42;;;;;;;13.20;11.90;;;;;;;;;;5035276;28;20173;-77
2023/09/26 08:47:08;;;;;;;13.20;11.73;;;;;;;;;;5030868;28;20205;-77
2023/09/26 08:49:34;;;;;;;14.07;12.67;;;;;;;;;;5001278;28;20190;-77
2023/09/26 08:52:00;;;;;;;13.63;12.27;;;;;;;;;;5001226;28;20228;-78
2023/09/26 08:54:26;;;;;;;13.97;11.80;;;;;;;;;;5001227;28;20195;-77
2023/09/26 08:56:53;;;;;;;13.83;12.43;;;;;;;;;;5001443;28;20191;-77
2023/09/26 08:59:20;;;;;;;13.67;11.90;;;;;;;;;;5001109;28;20196;-77
2023/09/26 09:01:46;;;;;;;16.37;11.90;;;;;;;;;;5034723;28;20184;-80
2023/09/26 09:04:12;;;;;;;12.33;11.03;;;;;;;;;;5017475;28;20218;-80
2023/09/26 09:06:38;;;;;;;12.83;11.43;;;;;;;;;;5016773;28;20208;-80
2023/09/26 09:09:13;;;;;;;13.93;10.87;;;;;;;;;;5017345;28;20242;-80
2023/09/26 09:11:39;;;;;;;11.43;10.33;;;;;;;;;;5009574;28;20207;-80
2023/09/26 09:14:06;;;;;;;11.80;10.20;;;;;;;;;;4997430;28;20235;-80
2023/09/26 09:16:32;;;;;;;11.13;9.37;;;;;;;;;;5015105;28;20181;-81
2023/09/26 09:18:58;;;;;;;11.37;10.13;;;;;;;;;;5023676;28;20189;-77
2023/09/26 09:21:30;;;;;;;11.00;9.57;;;;;;;;;;5016805;28;20196;-78
2023/09/26 09:23:57;;;;;;;11.43;9.83;;;;;;;;;;5019065;28;20207;-78
2023/09/26 09:26:24;;;;;;;12.20;10.00;;;;;;;;;;5019845;28;20189;-78
2023/09/26 09:28:52;;;;;;;11.97;9.87;;;;;;;;;;5017112;28;20180;-78
2023/09/26 09:31:18;;;;;;;13.10;9.03;;;;;;;;;;5034509;28;20165;-77
2023/09/26 09:33:48;;;;;;;10.30;9.13;;;;;;;;;;5034718;28;20169;-77
2023/09/26 09:36:14;;;;;;;12.10;9.10;;;;;;;;;;5016854;28;20173;-81
2023/09/26 09:38:40;;;;;;;9.63;8.60;;;;;;;;;;5033696;28;20215;-80
2023/09/26 09:41:09;;;;;;;13.33;8.57;;;;;;;;;;5023596;28;20191;-79
2023/09/26 09:43:36;;;;;;;13.87;8.63;;;;;;;;;;4997325;28;20185;-81
2023/09/26 09:46:08;;;;;;;11.80;8.07;;;;;;;;;;5024952;28;20191;-81
2023/09/26 09:48:44;;;;;;;8.43;7.53;;;;;;;;;;5016610;28;20268;-81
2023/09/26 09:51:14;;;;;;;11.23;8.00;;;;;;;;;;5034532;28;20205;-78
2023/09/26 09:53:42;;;;;;;8.33;7.00;;;;;;;;;;5016662;28;20187;-78
2023/09/26 09:56:09;;;;;;;9.33;7.93;;;;;;;;;;5011923;28;20404;-79
2023/09/26 09:58:40;;;;;;;9.73;8.65;;;;;;;;;;5015611;28;20422;-78
2023/09/26 10:01:07;;;;;;;9.07;7.90;;;;;;;;;;5016417;28;20252;-78
2023/09/26 10:03:33;;;;;;;9.17;6.80;;;;;;;;;;5034251;28;20196;-78
2023/09/26 10:06:00;;;;;;;10.03;7.53;;;;;;;;;;5021279;28;20254;-78
2023/09/26 10:08:27;;;;;;;10.50;7.40;;;;;;;;;;5015562;28;20327;-79
2023/09/26 10:10:54;;;;;;;10.50;7.67;;;;;;;;;;5008648;28;20271;-82
2023/09/26 10:13:21;;;;;;;11.90;7.60;;;;;;;;;;5025744;28;20180;-81
2023/09/26 10:16:06;;;;;;;11.07;7.73;;;;;;;;;;5040886;28;20231;-82
2023/09/26 10:18:39;;;;;;;9.03;7.03;;;;;;;;;;5023275;28;20192;-83
2023/09/26 10:21:25;;;;;;;9.70;7.83;;;;;;;;;;5005786;28;20188;-82
2023/09/26 10:24:06;;;;;;;11.70;6.63;;;;;;;;;;5033804;28;20194;-81
2023/09/26 10:26:33;;;;;;;6.87;6.17;;;;;;;;;;5020484;28;20204;-79
2023/09/26 10:29:25;;;;;;;8.30;6.70;;;;;;;;;;5022519;28;20223;-79
2023/09/26 10:31:56;;;;;;;8.47;7.53;;;;;;;;;;5028308;28;20244;-79
2023/09/26 10:34:43;;;;;;;8.40;7.57;;;;;;;;;;5027749;28;20180;-79
2023/09/26 10:37:15;;;;;;;8.87;6.87;;;;;;;;;;5039558;28;20274;-79
2023/09/26 10:39:41;;;;;;;9.33;7.80;;;;;;;;;;5022872;28;20192;-83
2023/09/26 10:42:14;;;;;;;8.30;6.97;;;;;;;;;;5037422;28;20209;-79
2023/09/26 10:44:45;;;;;;;9.90;6.60;;;;;;;;;;5019971;28;20198;-79
2023/09/26 10:47:13;;;;;;;9.43;6.87;;;;;;;;;;5004051;28;20216;-78
2023/09/26 10:49:39;;;;;;;9.70;7.53;;;;;;;;;;5036255;28;20192;-75
2023/09/26 10:52:08;;;;;;;9.57;6.50;;;;;;;;;;5015550;28;20264;-76
2023/09/26 10:54:35;;;;;;;7.47;6.77;;;;;;;;;;5019995;28;20176;-76
2023/09/26 10:57:01;;;;;;;10.57;7.50;;;;;;;;;;5019795;28;20200;-75
2023/09/26 10:59:31;;;;;;;11.95;7.90;;;;;;;;;;5001202;28;20469;-78
2023/09/26 11:01:58;;;;;;;9.20;7.78;;;;;;;;;;5002534;28;20670;-81
2023/09/26 11:04:28;;;;;;;9.18;7.15;;;;;;;;;;5021153;28;20234;-79
2023/09/26 11:07:02;;;;;;;9.25;7.78;;;;;;;;;;5019506;28;20200;-81
2023/09/26 11:09:28;;;;;;;9.10;8.07;;;;;;;;;;5031328;28;20477;-81
2023/09/26 11:11:57;;;;;;;9.80;8.02;;;;;;;;;;5018737;28;20469;-79
2023/09/26 11:14:24;;;;;;;10.50;7.70;;;;;;;;;;5019636;28;20444;-80
2023/09/26 11:16:51;;;;;;;9.95;7.90;;;;;;;;;;5018523;28;20413;-81
2023/09/26 11:19:17;;;;;;;9.00;7.68;;;;;;;;;;5036178;28;20449;-81
2023/09/26 11:21:43;;;;;;;8.73;7.93;;;;;;;;;;5018763;28;20420;-81
2023/09/26 11:24:19;;;;;;;9.85;7.30;;;;;;;;;;5019251;28;20185;-81
2023/09/26 11:26:45;;;;;;;10.15;7.80;;;;;;;;;;5019243;28;20208;-81
2023/09/26 11:29:12;;;;;;;11.13;7.47;;;;;;;;;;5019105;28;20173;-82
2023/09/26 11:31:38;;;;;;;9.35;7.10;;;;;;;;;;5002329;28;20493;-76
2023/09/26 11:34:05;;;;;;;8.82;7.90;;;;;;;;;;5018311;28;20402;-76
2023/09/26 11:36:31;;;;;;;9.52;7.50;;;;;;;;;;5002053;28;20401;-77
2023/09/26 11:38:59;;;;;;;9.80;8.07;;;;;;;;;;5018625;28;20413;-76
2023/09/26 11:41:26;;;;;;;8.13;6.80;;;;;;;;;;5019079;28;20303;-77
2023/09/26 11:43:52;;;;;;;6.80;5.43;;;;;;;;;;5003028;28;20184;-77
2023/09/26 11:46:19;;;;;;;7.70;4.97;;;;;;;;;;5035908;28;20256;-77
2023/09/26 11:48:48;;;;;;;7.47;5.07;;;;;;;;;;5018868;28;20418;-81
2023/09/26 11:51:14;;;;;;;7.67;5.20;;;;;;;;;;5001743;28;20436;-80
2023/09/26 11:53:41;;;;;;;6.50;5.20;;;;;;;;;;5001353;28;20429;-80
2023/09/26 11:56:07;;;;;;;6.22;4.90;;;;;;;;;;5037536;28;20487;-80
2023/09/26 11:58:34;;;;;;;8.00;5.20;;;;;;;;;;5037803;28;20489;-80
2023/09/26 12:01:00;;;;;;;9.98;5.15;;;;;;;;;;5048089;28;20421;-81
2023/09/26 12:03:26;;;;;;;6.22;5.00;;;;;;;;;;5018619;28;20219;-81
2023/09/26 12:05:52;;;;;;;9.10;4.97;;;;;;;;;;5002273;28;20234;-80
2023/09/26 12:08:19;;;;;;;6.03;4.78;;;;;;;;;;5002268;28;20246;-80
2023/09/26 12:10:45;;;;;;;8.00;5.22;;;;;;;;;;5018569;28;20173;-80
2023/09/26 12:13:11;;;;;;;5.18;4.68;;;;;;;;;;5001833;28;20189;-81
2023/09/26 12:15:37;;;;;;;6.60;4.97;;;;;;;;;;5017848;28;20235;-80
2023/09/26 12:18:03;;;;;;;5.93;5.18;;;;;;;;;;5005255;28;20216;-80
2023/09/26 12:20:29;;;;;;;7.68;5.32;;;;;;;;;;5001439;28;20461;-80
2023/09/26 12:22:56;;;;;;;7.63;5.25;;;;;;;;;;5017980;28;20475;-77
2023/09/26 12:25:23;;;;;;;6.03;4.90;;;;;;;;;;5018367;28;20267;-77
2023/09/26 12:27:50;;;;;;;8.27;4.60;;;;;;;;;;5004724;28;20433;-77
2023/09/26 12:30:16;;;;;;;7.00;4.68;;;;;;;;;;5017579;28;20397;-76
2023/09/26 12:32:42;;;;;;;6.70;4.60;;;;;;;;;;5001408;28;20415;-77
2023/09/26 12:35:10;;;;;;;6.40;4.50;;;;;;;;;;5016895;28;20463;-77
2023/09/26 12:37:36;;;;;;;6.57;4.90;;;;;;;;;;5001408;28;20417;-76
2023/09/26 12:40:12;;;;;;;7.10;5.50;;;;;;;;;;5009657;28;20526;-77
2023/09/26 12:42:38;;;;;;;7.55;4.78;;;;;;;;;;5023794;28;20176;-77
2023/09/26 12:45:05;;;;;;;9.48;4.95;;;;;;;;;;5033003;28;20196;-77
2023/09/26 12:47:31;;;;;;;7.30;5.05;;;;;;;;;;5032678;28;20236;-77
2023/09/26 12:50:00;;;;;;;7.57;5.10;;;;;;;;;;5011315;28;20188;-77
2023/09/26 12:52:28;;;;;;;7.68;5.10;;;;;;;;;;5017491;28;20405;-77
2023/09/26 12:54:54;;;;;;;8.32;5.45;;;;;;;;;;5002218;28;20188;-77
2023/09/26 12:57:21;;;;;;;6.60;5.20;;;;;;;;;;5001300;28;20409;-77
2023/09/26 12:59:49;;;;;;;7.72;5.65;;;;;;;;;;5016612;28;20436;-77
2023/09/26 13:02:15;;;;;;;6.28;5.43;;;;;;;;;;5034494;28;20412;-77
2023/09/26 13:04:42;;;;;;;8.60;5.68;;;;;;;;;;5017152;28;20420;-77
2023/09/26 13:07:08;;;;;;;9.37;6.50;;;;;;;;;;5017201;28;20453;-77
2023/09/26 13:09:34;;;;;;;10.02;5.80;;;;;;;;;;5001704;28;20176;-77
2023/09/26 13:12:00;;;;;;;8.38;6.20;;;;;;;;;;5000878;28;20414;-77
2023/09/26 13:14:26;;;;;;;7.45;5.95;;;;;;;;;;5001253;28;20229;-77
2023/09/26 13:16:52;;;;;;;9.95;7.13;;;;;;;;;;5001315;28;20188;-77
2023/09/26 13:19:18;;;;;;;8.70;7.05;;;;;;;;;;5017423;28;20213;-77
2023/09/26 13:21:45;;;;;;;8.75;7.03;;;;;;;;;;5016331;28;20447;-77
2023/09/26 13:24:11;;;;;;;8.63;6.25;;;;;;;;;;5017337;28;20176;-77
2023/09/26 13:26:38;;;;;;;7.93;7.03;;;;;;;;;;5016278;28;20443;-77
2023/09/26 13:29:06;;;;;;;8.35;6.45;;;;;;;;;;5017308;28;20219;-77
2023/09/26 13:31:32;;;;;;;9.32;6.40;;;;;;;;;;5000704;28;20298;-76
2023/09/26 13:33:58;;;;;;;8.60;6.93;;;;;;;;;;5016781;28;20437;-77
2023/09/26 13:36:24;;;;;;;9.00;7.20;;;;;;;;;;5000368;28;20200;-77
2023/09/26 13:38:50;;;;;;;9.30;8.18;;;;;;;;;;5012119;28;20419;-77
2023/09/26 13:41:16;;;;;;;8.60;7.55;;;;;;;;;;4986305;28;20435;-77
2023/09/26 13:43:42;;;;;;;10.55;7.53;;;;;;;;;;5031722;28;20185;-77
2023/09/26 13:46:08;;;;;;;9.32;7.68;;;;;;;;;;5016182;28;20417;-77
2023/09/26 13:48:34;;;;;;;11.60;7.68;;;;;;;;;;5000477;28;20231;-77
2023/09/26 13:51:00;;;;;;;9.93;7.90;;;;;;;;;;4999738;28;20437;-77
2023/09/26 13:53:27;;;;;;;9.13;7.72;;;;;;;;;;5000298;28;20188;-81
2023/09/26 13:55:54;;;;;;;10.32;6.80;;;;;;;;;;5001210;28;20219;-80
2023/09/26 13:58:20;;;;;;;10.35;7.38;;;;;;;;;;4999923;28;20246;-80
2023/09/26 14:00:46;;;;;;;8.57;7.40;;;;;;;;;;5039212;28;21060;-78
2023/09/26 14:03:12;;;;;;;12.10;7.97;;;;;;;;;;5016092;28;20424;-77
2023/09/26 14:05:38;;;;;;;11.65;7.22;;;;;;;;;;5034163;28;20173;-80
2023/09/26 14:08:04;;;;;;;8.77;7.10;;;;;;;;;;5016062;28;20504;-80
2023/09/26 14:10:30;;;;;;;8.48;7.53;;;;;;;;;;5033805;28;20472;-80
2023/09/26 14:12:56;;;;;;;8.57;7.68;;;;;;;;;;5017649;28;20411;-80
2023/09/26 14:15:22;;;;;;;10.82;8.00;;;;;;;;;;5015953;28;20512;-81
2023/09/26 14:17:48;;;;;;;8.93;7.57;;;;;;;;;;5015863;28;20418;-78
2023/09/26 14:20:14;;;;;;;8.30;7.28;;;;;;;;;;5032086;28;20402;-77
2023/09/26 14:22:40;;;;;;;10.02;7.30;;;;;;;;;;5016353;28;20420;-77
2023/09/26 14:25:09;;;;;;;8.47;7.07;;;;;;;;;;5031895;28;20401;-77
2023/09/26 14:27:37;;;;;;;9.68;7.47;;;;;;;;;;5037137;23;20551;-77
2023/09/26 14:30:05;;;;;;;8.93;7.30;;;;;;;;;;5036270;28;20429;-77
2023/09/26 14:32:35;;;;;;;8.13;7.10;;;;;;;;;;5052207;28;20434;-77